Time;durP1;ratioP1;P1;durP2;ratioP2;P2;SDS_P1;SDS_P2;PMS_P1;PMS_P2;Temp;Humidity;BMP_temperature;BMP_pressure;BME280_temperature;BME280_humidity;BME280_pressure;Samples;Min_cycle;Max_cycle;Signal;HPM_P1;HPM_P2
2021/11/12 00:13:29;;;;;;;41.25;28.55;;;10.50;83.70;;;;;;5050269;28;20577;-72
2021/11/12 00:15:58;;;;;;;41.05;28.02;;;10.50;83.60;;;;;;5056199;28;20025;-73
2021/11/12 00:18:27;;;;;;;40.47;27.80;;;10.50;83.50;;;;;;5033726;28;20029;-73
2021/11/12 00:20:59;;;;;;;39.08;27.70;;;10.50;83.50;;;;;;5049128;28;20057;-75
2021/11/12 00:23:25;;;;;;;;;;;10.50;83.60;;;;;;5051892;28;20503;-74
2021/11/12 00:25:55;;;;;;;39.53;27.42;;;10.50;83.50;;;;;;5048978;28;19912;-74
2021/11/12 00:28:24;;;;;;;39.20;27.52;;;10.50;83.50;;;;;;5051005;28;20087;-71
2021/11/12 00:31:03;;;;;;;39.03;28.27;;;10.50;83.60;;;;;;5037775;28;20065;-72
2021/11/12 00:38:58;;;;;;;39.95;27.65;;;10.50;83.60;;;;;;5050619;28;20091;-74
2021/11/12 00:41:39;;;;;;;47.22;29.88;;;10.50;83.50;;;;;;5049046;28;20029;-71
2021/11/12 00:47:00;;;;;;;41.35;29.05;;;10.50;83.60;;;;;;5069214;28;20043;-73
2021/11/12 00:49:29;;;;;;;41.45;29.23;;;10.50;83.60;;;;;;5033479;28;20395;-74
2021/11/12 00:52:05;;;;;;;41.45;29.13;;;10.50;83.70;;;;;;5049035;28;20479;-71
2021/11/12 00:54:34;;;;;;;40.85;29.73;;;10.50;83.80;;;;;;5054558;28;20485;-73
2021/11/12 00:56:59;;;;;;;42.42;29.40;;;10.50;83.80;;;;;;5060350;28;20047;-71
2021/11/12 00:59:25;;;;;;;36.38;26.38;;;10.50;83.80;;;;;;5053167;28;20037;-72
2021/11/12 01:01:51;;;;;;;42.03;28.77;;;10.50;83.80;;;;;;5060927;28;20025;-74
2021/11/12 01:04:23;;;;;;;41.13;28.45;;;10.50;83.70;;;;;;5053320;28;20013;-74
2021/11/12 01:06:50;;;;;;;37.38;27.75;;;10.50;83.80;;;;;;5053470;28;20025;-74
2021/11/12 01:09:19;;;;;;;38.78;28.55;;;10.50;83.80;;;;;;5053034;28;20040;-71
2021/11/12 01:11:49;;;;;;;45.60;30.98;;;10.50;83.80;;;;;;5055940;28;20110;-70
2021/11/12 01:14:22;;;;;;;44.80;30.20;;;10.50;83.60;;;;;;5052212;28;20043;-71
2021/11/12 01:16:54;;;;;;;42.70;29.70;;;10.50;83.40;;;;;;5053841;28;20021;-73
2021/11/12 01:19:21;;;;;;;38.50;28.95;;;10.40;83.50;;;;;;5053052;28;20036;-70
2021/11/12 01:21:47;;;;;;;46.00;29.88;;;10.40;83.60;;;;;;5053251;28;20565;-70
2021/11/12 01:24:12;;;;;;;43.42;29.98;;;10.40;83.70;;;;;;5054071;28;20033;-73
2021/11/12 01:26:38;;;;;;;41.72;28.88;;;10.40;84.30;;;;;;5054213;28;20031;-70
2021/11/12 01:29:05;;;;;;;42.55;28.05;;;10.40;83.80;;;;;;5058329;28;20569;-71
2021/11/12 01:31:31;;;;;;;40.30;28.80;;;10.40;83.70;;;;;;5052886;28;20061;-73
2021/11/12 01:34:01;;;;;;;43.05;29.65;;;10.40;83.80;;;;;;5051182;28;20061;-71
2021/11/12 01:36:32;;;;;;;41.40;27.30;;;10.40;83.90;;;;;;5051567;28;20059;-72
2021/11/12 01:39:04;;;;;;;39.70;28.63;;;10.40;83.90;;;;;;5052932;28;20086;-72
2021/11/12 01:41:34;;;;;;;39.90;28.83;;;10.40;83.80;;;;;;5054010;28;20490;-73
2021/11/12 01:44:06;;;;;;;40.08;28.65;;;10.40;83.90;;;;;;5068539;28;20400;-71
2021/11/12 01:51:51;;;;;;;43.25;29.88;;;10.40;84.00;;;;;;5053422;28;20103;-73
2021/11/12 01:59:23;;;;;;;44.08;29.33;;;10.40;83.90;;;;;;5053350;28;20033;-74
2021/11/12 02:02:06;;;;;;;46.88;30.15;;;10.40;83.90;;;;;;5052960;28;20116;-74
2021/11/12 02:04:32;;;;;;;45.92;30.52;;;10.40;84.00;;;;;;5052013;28;20120;-73
2021/11/12 02:07:04;;;;;;;43.25;29.88;;;10.30;83.80;;;;;;5053152;28;20117;-74
2021/11/12 02:09:31;;;;;;;50.70;30.70;;;10.40;84.00;;;;;;5051552;28;20021;-71
2021/11/12 02:12:08;;;;;;;40.97;28.67;;;10.40;84.00;;;;;;5067998;28;20029;-74
2021/11/12 02:14:34;;;;;;;41.85;28.20;;;10.40;83.90;;;;;;5052446;28;20028;-75
2021/11/12 02:20:22;;;;;;;43.67;29.50;;;10.40;83.80;;;;;;5072898;28;20044;-71
2021/11/12 02:22:59;;;;;;;39.15;27.80;;;10.40;83.70;;;;;;5045380;28;20186;-71
2021/11/12 02:25:32;;;;;;;43.95;30.58;;;10.40;83.70;;;;;;5056407;28;20021;-74
2021/11/12 02:28:02;;;;;;;41.40;28.45;;;10.40;83.70;;;;;;5055766;28;20406;-72
2021/11/12 02:30:31;;;;;;;43.55;29.83;;;10.40;83.70;;;;;;5052168;28;20021;-74
2021/11/12 02:33:06;;;;;;;42.80;29.08;;;10.30;83.50;;;;;;5065734;28;20032;-73
2021/11/12 02:35:34;;;;;;;41.97;27.60;;;10.30;83.40;;;;;;5071779;28;20039;-71
2021/11/12 02:38:04;;;;;;;45.97;29.02;;;10.30;83.20;;;;;;5060265;28;20021;-74
2021/11/12 02:40:31;;;;;;;43.78;28.52;;;10.30;83.10;;;;;;5061309;28;20128;-74
2021/11/12 02:42:57;;;;;;;40.78;26.30;;;10.20;83.00;;;;;;5069678;28;20098;-74
2021/11/12 02:45:24;;;;;;;41.03;27.52;;;10.20;82.80;;;;;;5071200;28;20025;-72
2021/11/12 02:47:50;;;;;;;39.00;27.17;;;10.20;82.80;;;;;;5053894;28;20123;-73
2021/11/12 02:50:18;;;;;;;43.30;27.48;;;10.20;82.80;;;;;;5060384;28;20048;-72
2021/11/12 02:52:46;;;;;;;45.95;28.05;;;10.20;82.80;;;;;;5055753;28;20437;-76
2021/11/12 02:55:16;;;;;;;43.20;27.33;;;10.10;82.70;;;;;;5071916;28;20564;-75
2021/11/12 02:57:43;;;;;;;42.95;27.63;;;10.20;82.70;;;;;;5067834;28;20028;-72
2021/11/12 03:00:15;;;;;;;43.65;26.15;;;10.20;82.70;;;;;;5054057;28;20021;-73
2021/11/12 03:02:43;;;;;;;37.35;25.85;;;10.10;82.70;;;;;;5055618;28;20038;-76
2021/11/12 03:05:09;;;;;;;39.78;27.92;;;10.10;82.60;;;;;;5071380;28;20154;-73
2021/11/12 03:07:38;;;;;;;41.72;27.75;;;10.10;82.60;;;;;;5070239;28;20032;-73
2021/11/12 03:10:05;;;;;;;43.05;27.20;;;10.10;82.50;;;;;;5071640;28;20520;-76
2021/11/12 03:12:31;;;;;;;41.83;27.38;;;10.10;82.50;;;;;;5071509;28;20067;-75
2021/11/12 03:14:57;;;;;;;42.97;28.80;;;10.10;82.40;;;;;;5055788;28;20079;-73
2021/11/12 03:17:36;;;;;;;45.15;27.70;;;10.10;82.40;;;;;;5071603;28;20509;-73
2021/11/12 03:20:11;;;;;;;40.80;26.77;;;10.10;82.50;;;;;;5069893;28;20128;-75
2021/11/12 03:22:42;;;;;;;42.22;28.27;;;10.10;82.40;;;;;;5051591;28;20049;-76
2021/11/12 03:25:13;;;;;;;39.47;26.67;;;10.10;82.30;;;;;;5071096;28;20024;-75
2021/11/12 04:05:34;;;;;;;37.17;25.33;;;9.70;80.30;;;;;;5051293;28;20029;-74
2021/11/12 07:28:27;;;;;;;30.70;20.83;;;7.30;78.30;;;;;;5087947;28;20121;-91
2021/11/12 07:30:54;;;;;;;31.02;20.80;;;7.20;78.40;;;;;;5084586;22;20056;-92
2021/11/12 07:33:21;;;;;;;28.15;20.77;;;7.20;78.30;;;;;;5013463;28;20030;-92
2021/11/12 07:38:16;;;;;;;27.08;19.65;;;7.20;78.60;;;;;;5081775;28;20030;-91
2021/11/12 07:48:42;;;;;;;29.23;19.90;;;7.20;78.30;;;;;;5020588;28;20391;-90
2021/11/12 07:51:09;;;;;;;30.38;20.88;;;7.20;78.40;;;;;;5080310;28;20014;-90
2021/11/12 07:53:35;;;;;;;28.75;20.48;;;7.20;78.50;;;;;;5047687;28;20034;-89
2021/11/12 07:56:16;;;;;;;26.75;19.92;;;7.20;78.40;;;;;;5055133;28;20113;-91
2021/11/12 07:58:46;;;;;;;29.75;20.00;;;7.20;78.40;;;;;;5061210;28;20034;-90
2021/11/12 08:01:11;;;;;;;26.05;18.98;;;7.20;78.50;;;;;;5081347;28;20032;-89
2021/11/12 08:03:37;;;;;;;28.77;21.73;;;7.20;78.50;;;;;;5064680;28;20022;-90
2021/11/12 08:06:05;;;;;;;29.42;19.95;;;7.20;78.40;;;;;;5064526;28;20108;-92
2021/11/12 08:08:35;;;;;;;26.55;20.33;;;7.20;78.50;;;;;;5079996;28;20026;-90
2021/11/12 08:11:11;;;;;;;30.13;21.85;;;7.20;78.60;;;;;;5064992;28;20034;-92
2021/11/12 08:13:44;;;;;;;29.70;20.58;;;7.20;78.60;;;;;;5066125;28;20030;-92
2021/11/12 08:18:52;;;;;;;29.35;20.75;;;7.20;78.30;;;;;;5013979;28;20038;-90
2021/11/12 08:29:06;;;;;;;30.83;21.17;;;7.20;78.60;;;;;;5012187;28;19909;-88
2021/11/12 08:31:40;;;;;;;29.27;20.88;;;7.30;78.70;;;;;;5065453;28;20054;-89
2021/11/12 08:37:16;;;;;;;32.67;21.73;;;7.30;78.90;;;;;;5005524;28;20142;-91
2021/11/12 08:40:01;;;;;;;33.67;20.67;;;7.40;78.40;;;;;;5039845;28;20040;-90
2021/11/12 08:42:36;;;;;;;28.00;20.92;;;7.40;78.50;;;;;;5070144;28;20054;-91
2021/11/12 08:47:39;;;;;;;30.60;21.02;;;7.40;78.20;;;;;;5031110;28;20109;-90
2021/11/12 08:50:08;;;;;;;32.53;22.30;;;7.40;78.30;;;;;;5047571;28;20422;-89
2021/11/12 08:52:35;;;;;;;30.65;22.00;;;7.50;79.00;;;;;;5078662;28;20038;-90
2021/11/12 08:55:05;;;;;;;32.03;22.60;;;7.60;78.40;;;;;;5060364;28;20113;-89
2021/11/12 08:57:31;;;;;;;31.10;22.35;;;7.60;78.10;;;;;;5078849;28;20171;-95
2021/11/12 08:59:57;;;;;;;31.83;23.00;;;7.60;78.10;;;;;;5031033;28;20030;-90
2021/11/12 09:02:28;;;;;;;30.92;22.10;;;7.60;77.80;;;;;;5070204;28;20034;-90
2021/11/12 09:04:55;;;;;;;33.10;22.05;;;7.70;77.90;;;;;;5048745;28;20415;-94
2021/11/12 09:07:22;;;;;;;32.25;22.13;;;7.70;78.00;;;;;;5059302;28;20019;-91
2021/11/12 09:09:50;;;;;;;35.05;24.15;;;7.80;78.10;;;;;;5042057;28;20087;-91
2021/11/12 09:12:18;;;;;;;33.78;23.67;;;7.90;77.60;;;;;;5058982;28;20030;-92
2021/11/12 09:14:49;;;;;;;29.98;21.40;;;8.00;77.60;;;;;;4993171;28;20030;-93
2021/11/12 09:17:16;;;;;;;32.80;23.35;;;8.00;78.30;;;;;;5074269;28;20026;-92
2021/11/12 09:19:54;;;;;;;38.03;24.15;;;8.10;77.10;;;;;;5069526;28;20034;-92
2021/11/12 09:22:24;;;;;;;32.63;23.02;;;8.10;76.80;;;;;;5063875;28;20552;-93
2021/11/12 09:24:51;;;;;;;34.33;23.98;;;8.20;77.20;;;;;;5065267;28;20133;-91
2021/11/12 09:27:18;;;;;;;42.08;24.63;;;8.30;76.30;;;;;;5064394;28;20091;-91
2021/11/12 09:29:48;;;;;;;38.42;24.45;;;8.30;76.20;;;;;;5069118;28;20037;-91
2021/11/12 09:32:15;;;;;;;35.72;24.83;;;8.40;76.30;;;;;;5082765;28;20054;-89
2021/11/12 09:34:41;;;;;;;33.65;23.40;;;8.50;76.10;;;;;;5066111;28;20058;-89
2021/11/12 09:37:10;;;;;;;36.28;24.00;;;8.50;76.00;;;;;;5068291;28;20026;-90
2021/11/12 09:39:40;;;;;;;34.28;23.30;;;8.60;76.20;;;;;;5058373;28;20030;-90
2021/11/12 09:42:07;;;;;;;39.15;25.83;;;8.70;76.20;;;;;;5082344;28;20094;-91
2021/11/12 09:44:36;;;;;;;38.78;25.73;;;8.70;75.20;;;;;;5081959;28;20067;-91
2021/11/12 09:47:02;;;;;;;35.45;23.48;;;8.80;75.00;;;;;;5082083;28;20040;-91
2021/11/12 09:49:28;;;;;;;39.75;24.73;;;8.80;75.20;;;;;;5065797;28;20022;-88
2021/11/12 09:51:54;;;;;;;36.97;26.05;;;9.00;74.70;;;;;;5080057;28;20040;-89
2021/11/12 09:54:20;;;;;;;33.60;23.92;;;9.00;74.30;;;;;;5041648;28;20103;-88
2021/11/12 09:56:46;;;;;;;34.15;22.48;;;9.00;74.20;;;;;;5012620;28;20053;-89
2021/11/12 09:59:12;;;;;;;35.53;24.25;;;9.00;74.30;;;;;;5068879;28;20056;-89
2021/11/12 10:01:40;;;;;;;37.05;24.90;;;9.00;74.20;;;;;;5036004;28;20130;-90
2021/11/12 10:04:11;;;;;;;38.58;26.42;;;9.00;73.60;;;;;;5011712;28;20014;-89
2021/11/12 10:06:44;;;;;;;37.22;24.88;;;9.00;73.30;;;;;;5075839;28;20030;-89
2021/11/12 10:09:15;;;;;;;34.28;23.73;;;9.10;73.50;;;;;;5081372;28;20020;-90
2021/11/12 10:12:02;;;;;;;37.72;25.70;;;9.20;73.60;;;;;;5079085;28;20083;-90
2021/11/12 10:14:34;;;;;;;36.40;23.38;;;9.30;73.10;;;;;;5079734;28;20512;-90
2021/11/12 10:17:01;;;;;;;;;;;9.40;73.20;;;;;;5081405;28;20022;-89
2021/11/12 10:19:27;;;;;;;34.30;23.95;;;9.50;72.80;;;;;;5095421;28;20480;-87
2021/11/12 10:22:03;;;;;;;36.25;25.25;;;9.40;72.30;;;;;;5080282;28;20097;-88
2021/11/12 10:24:33;;;;;;;32.38;22.02;;;9.50;72.70;;;;;;5080088;28;20502;-89
2021/11/12 10:27:13;;;;;;;35.47;23.95;;;9.60;72.70;;;;;;5062422;28;20018;-86
2021/11/12 10:29:59;;;;;;;36.53;24.27;;;9.60;72.70;;;;;;5066724;28;20017;-90
2021/11/12 10:32:34;;;;;;;29.95;21.45;;;9.70;72.20;;;;;;5097980;28;20504;-88
2021/11/12 10:35:09;;;;;;;34.70;23.42;;;9.70;72.10;;;;;;5098710;28;20096;-88
2021/11/12 10:37:39;;;;;;;31.25;21.85;;;9.70;71.80;;;;;;5098868;28;20024;-90
2021/11/12 10:40:12;;;;;;;30.77;21.55;;;9.80;72.20;;;;;;5099551;28;20039;-91
2021/11/12 10:42:44;;;;;;;35.83;23.73;;;9.90;72.80;;;;;;5097802;28;20508;-89
2021/11/12 10:45:19;;;;;;;33.85;21.63;;;10.10;70.90;;;;;;5080700;28;20428;-89
2021/11/12 10:47:58;;;;;;;28.50;21.20;;;10.30;71.30;;;;;;5076337;28;20045;-91
2021/11/12 10:50:27;;;;;;;28.50;20.70;;;10.60;70.70;;;;;;5086986;28;20028;-88
2021/11/12 10:52:59;;;;;;;28.42;20.17;;;10.80;69.00;;;;;;5086525;28;20027;-90
2021/11/12 10:55:27;;;;;;;31.95;22.85;;;11.20;68.20;;;;;;5094162;28;20032;-89
2021/11/12 10:57:57;;;;;;;30.42;19.50;;;11.80;65.70;;;;;;5099466;28;20558;-91
2021/11/12 11:00:31;;;;;;;26.65;20.50;;;12.40;65.40;;;;;;5099384;28;20013;-91
2021/11/12 11:02:58;;;;;;;29.30;21.13;;;13.20;64.00;;;;;;5076273;28;20399;-90
2021/11/12 11:05:25;;;;;;;26.17;20.55;;;14.10;61.50;;;;;;5090303;27;20022;-90
2021/11/12 11:08:05;;;;;;;22.58;18.65;;;15.00;58.70;;;;;;5096881;28;20086;-88
2021/11/12 11:10:40;;;;;;;25.73;19.23;;;15.80;57.30;;;;;;5057786;28;20029;-90
2021/11/12 11:13:23;;;;;;;27.75;20.73;;;16.30;55.00;;;;;;5098358;27;20022;-90
2021/11/12 11:15:57;;;;;;;28.23;23.08;;;16.20;53.70;;;;;;5097012;27;20032;-90
2021/11/12 11:18:26;;;;;;;26.65;21.35;;;16.10;54.00;;;;;;5092311;27;20021;-89
2021/11/12 11:21:09;;;;;;;26.77;21.83;;;16.40;53.20;;;;;;5084497;27;20513;-91
2021/11/12 11:24:10;;;;;;;25.90;20.50;;;16.90;52.30;;;;;;5022954;28;20024;-90
2021/11/12 11:26:48;;;;;;;30.17;22.42;;;17.20;51.50;;;;;;5098004;27;20040;-90
2021/11/12 11:29:24;;;;;;;25.80;20.90;;;17.10;51.60;;;;;;5090147;28;20420;-89
2021/11/12 11:31:54;;;;;;;28.25;22.17;;;17.00;51.80;;;;;;5091776;28;20475;-90
2021/11/12 11:34:22;;;;;;;24.77;19.67;;;17.30;50.50;;;;;;5088680;28;20029;-91
2021/11/12 11:36:50;;;;;;;24.75;21.13;;;17.60;50.30;;;;;;5090236;28;20033;-91
2021/11/12 11:39:19;;;;;;;25.33;20.60;;;17.90;49.50;;;;;;5068657;28;20082;-91
2021/11/12 11:41:45;;;;;;;26.15;21.00;;;18.20;48.60;;;;;;5088485;28;20071;-92
2021/11/12 11:44:14;;;;;;;24.20;20.92;;;18.60;48.30;;;;;;5090605;28;20053;-92
2021/11/12 11:46:43;;;;;;;25.30;21.60;;;19.00;47.10;;;;;;5084792;28;20056;-90
2021/11/12 11:49:22;;;;;;;28.77;23.88;;;19.20;46.30;;;;;;5030047;28;20029;-90
2021/11/12 11:51:53;;;;;;;26.25;22.42;;;18.80;46.30;;;;;;5060265;28;20422;-91
2021/11/12 11:54:21;;;;;;;27.08;20.00;;;18.60;46.90;;;;;;5059089;28;20029;-90
2021/11/12 11:56:58;;;;;;;26.75;21.65;;;18.80;46.90;;;;;;5090475;28;20030;-93
2021/11/12 11:59:27;;;;;;;26.35;21.08;;;18.90;45.80;;;;;;5091427;28;20030;-93
2021/11/12 12:01:56;;;;;;;22.98;20.23;;;18.50;46.20;;;;;;5101449;28;20033;-96
2021/11/12 12:04:34;;;;;;;24.65;21.63;;;17.80;47.70;;;;;;5111015;28;20053;-96
2021/11/12 12:07:04;;;;;;;29.52;24.58;;;17.30;49.10;;;;;;5115071;27;20036;-96
2021/11/12 12:09:47;;;;;;;31.05;23.85;;;17.00;49.50;;;;;;5113448;22;20402;-73
2021/11/12 12:12:36;;;;;;;30.10;23.10;;;16.60;50.60;;;;;;5081010;28;20084;-73
2021/11/12 12:15:04;;;;;;;29.40;23.63;;;16.50;51.50;;;;;;5085762;28;20028;-73
2021/11/12 12:18:10;;;;;;;32.65;24.77;;;16.40;51.90;;;;;;5076325;28;20050;-73
2021/11/12 12:38:15;;;;;;;37.50;26.83;;;13.50;58.50;;;;;;5075282;28;20394;-71
2021/11/12 13:25:49;;;;;;;39.60;26.60;;;11.60;65.80;;;;;;5083789;28;19908;-73
2021/11/12 13:28:32;;;;;;;35.08;26.13;;;11.50;66.30;;;;;;5085645;28;20149;-73
2021/11/12 13:31:03;;;;;;;35.78;26.58;;;11.40;66.60;;;;;;5072278;28;20051;-73
2021/11/12 13:33:45;;;;;;;37.95;27.45;;;11.50;67.10;;;;;;5086677;28;20032;-73
2021/11/12 13:36:24;;;;;;;;;;;11.60;67.20;;;;;;5073694;28;20051;-72
2021/11/12 13:38:54;;;;;;;39.90;28.90;;;11.60;66.90;;;;;;5075357;28;19933;-73
2021/11/12 13:41:44;;;;;;;41.00;28.23;;;11.60;67.20;;;;;;5079316;28;20056;-72
2021/11/12 13:44:16;;;;;;;39.13;28.23;;;11.60;67.30;;;;;;5073973;28;20033;-73
2021/11/12 13:46:53;;;;;;;35.08;26.17;;;11.50;66.80;;;;;;5072717;28;20024;-72
2021/11/12 13:49:28;;;;;;;38.90;26.08;;;11.50;67.70;;;;;;5075540;28;20024;-72
2021/11/12 13:52:17;;;;;;;38.28;27.33;;;11.40;67.50;;;;;;5081469;28;20053;-73
2021/11/12 13:54:49;;;;;;;37.33;26.55;;;11.40;67.50;;;;;;5085579;28;20498;-73
2021/11/12 13:57:21;;;;;;;37.70;27.65;;;11.30;67.10;;;;;;5075376;28;20075;-73
2021/11/12 13:59:54;;;;;;;37.77;26.83;;;11.20;67.50;;;;;;5081348;28;20485;-73
2021/11/12 14:02:21;;;;;;;37.58;28.38;;;11.20;67.90;;;;;;5082051;28;20089;-72
2021/11/12 14:04:47;;;;;;;37.17;27.17;;;11.20;68.30;;;;;;5087583;28;20058;-73
2021/11/12 14:07:22;;;;;;;39.60;27.80;;;11.20;68.40;;;;;;5089412;28;20135;-72
2021/11/12 14:10:02;;;;;;;44.22;28.90;;;11.20;68.80;;;;;;5081442;28;20111;-73
2021/11/12 14:12:28;;;;;;;41.85;28.27;;;11.10;68.40;;;;;;5094136;28;20020;-73
2021/11/12 14:15:22;;;;;;;41.00;28.88;;;11.10;68.90;;;;;;5094355;28;20555;-73
2021/11/12 14:18:35;;;;;;;40.60;29.33;;;11.10;68.90;;;;;;5095395;28;20032;-73
2021/11/12 14:21:19;;;;;;;42.65;27.98;;;11.10;68.90;;;;;;5071432;28;20029;-72
2021/11/12 14:30:05;;;;;;;43.55;29.33;;;10.90;69.40;;;;;;5095391;28;20067;-73
2021/11/12 14:35:17;;;;;;;40.22;29.67;;;10.80;70.20;;;;;;5061568;28;20050;-73
2021/11/12 14:45:43;;;;;;;43.00;30.15;;;10.70;70.50;;;;;;5074935;28;20028;-73
2021/11/12 14:51:05;;;;;;;45.22;31.92;;;10.70;70.80;;;;;;5074879;28;20079;-73
2021/11/12 14:56:39;;;;;;;43.08;30.50;;;10.60;70.80;;;;;;5054291;28;20025;-72
2021/11/12 14:59:01;;;;;;;43.40;29.35;;;10.60;70.80;;;;;;5052180;28;20043;-72
2021/11/12 15:01:32;;;;;;;44.63;30.45;;;10.50;71.20;;;;;;5054126;28;20135;-73
2021/11/12 15:03:57;;;;;;;46.67;31.65;;;10.50;71.60;;;;;;5054322;28;20104;-73
2021/11/12 15:06:25;;;;;;;51.83;31.20;;;10.50;71.60;;;;;;5059624;28;20112;-74
2021/11/12 15:09:00;;;;;;;45.85;32.28;;;10.50;71.70;;;;;;5073995;28;20119;-73
2021/11/12 15:11:28;;;;;;;46.45;31.45;;;10.50;71.80;;;;;;5073013;28;20024;-73
2021/11/12 15:14:03;;;;;;;45.53;33.28;;;10.50;71.70;;;;;;5074085;28;20040;-74
2021/11/12 15:17:08;;;;;;;44.97;30.17;;;10.50;72.00;;;;;;5074166;28;20074;-73
2021/11/12 15:19:38;;;;;;;44.50;30.90;;;10.50;72.20;;;;;;5074161;28;20027;-73
2021/11/12 15:30:03;;;;;;;44.83;30.65;;;10.40;72.40;;;;;;5073233;28;20025;-74
2021/11/12 15:32:34;;;;;;;45.17;30.30;;;10.40;72.50;;;;;;5056136;28;20032;-75
2021/11/12 15:35:12;;;;;;;42.80;30.15;;;10.40;72.50;;;;;;5072335;28;20033;-73
2021/11/12 15:53:51;;;;;;;43.90;29.17;;;10.20;73.20;;;;;;5068871;28;20059;-73
2021/11/12 16:25:42;;;;;;;41.60;30.15;;;10.00;73.80;;;;;;5090640;28;20086;-72
2021/11/12 16:28:16;;;;;;;38.85;28.35;;;10.00;74.00;;;;;;5091113;28;20032;-73
2021/11/12 16:30:50;;;;;;;40.58;29.20;;;9.90;74.10;;;;;;5072984;28;20035;-74
2021/11/12 16:33:16;;;;;;;37.67;26.60;;;9.90;74.30;;;;;;5091297;28;20024;-73
2021/11/12 16:35:43;;;;;;;39.42;28.05;;;9.90;74.40;;;;;;5073280;28;20035;-73
2021/11/12 16:38:21;;;;;;;39.40;29.20;;;9.90;74.50;;;;;;5056945;28;20016;-73
2021/11/12 16:40:56;;;;;;;39.33;28.70;;;9.90;74.60;;;;;;5073537;28;20032;-73
2021/11/12 16:43:31;;;;;;;35.83;26.40;;;9.90;75.30;;;;;;5092923;28;20020;-73
2021/11/12 16:46:06;;;;;;;35.58;25.40;;;9.80;74.70;;;;;;5088189;28;20025;-75
2021/11/12 16:48:55;;;;;;;38.38;27.63;;;9.80;74.70;;;;;;5090263;28;20028;-72
2021/11/12 16:54:49;;;;;;;35.35;27.25;;;9.80;74.80;;;;;;5072710;28;20036;-73
2021/11/12 16:57:00;;;;;;;39.38;27.50;;;9.80;74.80;;;;;;5080201;28;20090;-72
2021/11/12 17:02:11;;;;;;;35.83;26.02;;;9.80;74.90;;;;;;5089081;28;20046;-73
2021/11/12 17:05:25;;;;;;;35.10;26.25;;;9.80;75.00;;;;;;5071690;28;20024;-72
2021/11/12 17:15:24;;;;;;;36.83;25.95;;;9.80;75.10;;;;;;5068259;28;20119;-73
2021/11/12 17:18:41;;;;;;;35.42;25.42;;;9.80;75.00;;;;;;5077196;28;20147;-73
2021/11/12 17:47:38;;;;;;;31.38;21.85;;;9.70;76.00;;;;;;5078349;28;20097;-73
2021/11/12 18:03:46;;;;;;;27.30;20.27;;;9.70;76.20;;;;;;5066090;28;20048;-73
2021/11/12 18:06:28;;;;;;;28.85;21.08;;;9.60;76.30;;;;;;5071464;28;20031;-73
2021/11/12 18:12:14;;;;;;;27.02;21.15;;;9.70;76.50;;;;;;5068076;28;20036;-73
2021/11/12 18:14:50;;;;;;;40.72;24.42;;;9.70;76.70;;;;;;5059361;28;20036;-73
2021/11/12 21:44:05;;;;;;;16.90;11.68;;;10.00;81.20;;;;;;5087085;28;20414;-73
2021/11/12 21:46:31;;;;;;;14.88;12.10;;;10.00;81.20;;;;;;5093471;28;20505;-73
2021/11/12 21:49:00;;;;;;;15.25;11.65;;;10.00;81.30;;;;;;5054583;28;20024;-73
2021/11/12 21:51:34;;;;;;;18.58;13.25;;;10.00;81.30;;;;;;5090601;28;20101;-74
2021/11/12 21:54:03;;;;;;;20.05;13.82;;;10.00;81.20;;;;;;5075293;28;20024;-74
2021/11/12 21:56:30;;;;;;;17.48;12.75;;;10.00;81.20;;;;;;5068889;28;20418;-74
2021/11/12 21:58:55;;;;;;;17.02;12.68;;;10.00;81.20;;;;;;5087011;28;20020;-74
2021/11/12 22:01:22;;;;;;;17.95;12.77;;;10.00;81.20;;;;;;5088906;28;20040;-73
2021/11/12 22:03:49;;;;;;;15.55;12.00;;;10.10;81.20;;;;;;5091346;28;20024;-73
2021/11/12 22:06:21;;;;;;;16.15;12.30;;;10.10;81.10;;;;;;5087713;28;20493;-73
2021/11/12 22:08:47;;;;;;;20.27;13.50;;;10.10;81.30;;;;;;5082340;28;20103;-73
2021/11/12 22:11:19;;;;;;;18.63;13.18;;;10.10;81.40;;;;;;5088114;28;20028;-73
2021/11/12 22:13:46;;;;;;;19.40;13.88;;;10.10;81.60;;;;;;5088691;28;20031;-73
2021/11/12 22:16:15;;;;;;;15.85;12.05;;;10.10;81.70;;;;;;5072200;28;20024;-73
2021/11/12 22:18:45;;;;;;;18.73;13.07;;;10.10;81.80;;;;;;5089228;28;20032;-73
2021/11/12 22:21:11;;;;;;;19.50;13.75;;;10.10;81.90;;;;;;5085834;28;20115;-73
2021/11/12 22:23:37;;;;;;;18.83;13.98;;;10.10;82.00;;;;;;5081373;28;20039;-73
2021/11/12 22:26:03;;;;;;;19.42;14.02;;;10.10;82.20;;;;;;5091004;28;20136;-73
2021/11/12 22:28:29;;;;;;;19.60;14.07;;;10.10;83.00;;;;;;5073013;28;20016;-73
2021/11/12 22:30:55;;;;;;;17.50;13.98;;;10.10;82.60;;;;;;5063653;28;20062;-73
2021/11/12 22:33:24;;;;;;;19.02;14.07;;;10.10;82.50;;;;;;5048833;28;20028;-73
2021/11/12 22:35:50;;;;;;;20.65;14.02;;;10.20;82.70;;;;;;5090282;28;20028;-73
2021/11/12 22:38:16;;;;;;;22.60;15.27;;;10.20;82.70;;;;;;5080295;28;20035;-73
2021/11/12 22:40:45;;;;;;;22.48;14.48;;;10.20;83.30;;;;;;5091322;28;20023;-75
2021/11/12 22:43:11;;;;;;;18.13;13.23;;;10.20;82.90;;;;;;5076865;28;20016;-73
2021/11/12 22:45:37;;;;;;;23.02;14.18;;;10.20;82.90;;;;;;5090123;28;20087;-73
2021/11/12 22:48:03;;;;;;;19.25;13.25;;;10.20;83.00;;;;;;5088287;28;20501;-73
2021/11/12 22:50:30;;;;;;;23.95;14.82;;;10.20;83.10;;;;;;5068145;28;20114;-73
2021/11/12 22:52:56;;;;;;;20.05;14.85;;;10.30;83.10;;;;;;5087356;28;20024;-73
2021/11/12 22:55:22;;;;;;;23.67;14.77;;;10.30;83.20;;;;;;5089731;28;20109;-73
2021/11/12 22:57:49;;;;;;;23.55;14.95;;;10.30;83.10;;;;;;5088125;28;20054;-73
2021/11/12 23:00:50;;;;;;;19.83;14.60;;;10.30;83.80;;;;;;5090110;28;20051;-74
2021/11/12 23:03:16;;;;;;;21.08;14.95;;;10.30;83.30;;;;;;5052540;28;20130;-73
2021/11/12 23:05:41;;;;;;;23.55;14.98;;;10.20;83.20;;;;;;5072285;28;20111;-73
2021/11/12 23:08:07;;;;;;;19.25;14.77;;;10.30;83.20;;;;;;5090024;28;20396;-73
2021/11/12 23:10:33;;;;;;;19.65;14.60;;;10.30;83.20;;;;;;5090228;28;20051;-73
2021/11/12 23:12:59;;;;;;;25.00;16.08;;;10.30;83.30;;;;;;5090112;28;20047;-73
2021/11/12 23:15:25;;;;;;;21.83;15.32;;;10.30;83.20;;;;;;5071497;28;20082;-73
2021/11/12 23:17:51;;;;;;;25.63;16.05;;;10.30;83.20;;;;;;5071201;28;20028;-74
2021/11/12 23:20:17;;;;;;;23.17;16.40;;;10.30;83.20;;;;;;5090150;28;20035;-73
2021/11/12 23:22:43;;;;;;;21.58;16.02;;;10.30;83.30;;;;;;5075540;28;20478;-73
2021/11/12 23:25:10;;;;;;;22.05;15.38;;;10.20;83.30;;;;;;5089663;28;20474;-73
2021/11/12 23:27:36;;;;;;;19.20;15.30;;;10.20;83.50;;;;;;5089680;28;20071;-74
2021/11/12 23:30:04;;;;;;;20.27;14.93;;;10.20;83.70;;;;;;5089384;28;20032;-74
2021/11/12 23:32:30;;;;;;;19.05;14.25;;;10.20;83.90;;;;;;5089377;28;20111;-74
2021/11/12 23:34:56;;;;;;;24.15;17.70;;;10.20;83.80;;;;;;5089616;28;20639;-74
2021/11/12 23:37:22;;;;;;;22.40;16.95;;;10.20;84.20;;;;;;5089522;28;20073;-73
2021/11/12 23:39:47;;;;;;;25.52;17.73;;;10.20;84.70;;;;;;5089038;28;20028;-74
2021/11/12 23:42:13;;;;;;;24.35;16.30;;;10.10;84.80;;;;;;5089405;28;20036;-74
2021/11/12 23:44:39;;;;;;;25.83;17.85;;;10.10;84.90;;;;;;5089996;28;20032;-74
2021/11/12 23:47:05;;;;;;;24.45;17.48;;;10.10;85.40;;;;;;5051391;28;20028;-75
2021/11/12 23:49:31;;;;;;;25.88;18.55;;;10.10;85.50;;;;;;5069080;28;20174;-74
2021/11/12 23:51:57;;;;;;;23.60;16.95;;;10.10;85.70;;;;;;5069672;28;20107;-74
2021/11/12 23:54:22;;;;;;;23.77;17.88;;;10.00;85.80;;;;;;5077385;28;20505;-74
2021/11/12 23:56:48;;;;;;;24.33;18.15;;;10.00;86.30;;;;;;5087759;28;20097;-74
2021/11/12 23:59:15;;;;;;;24.20;16.98;;;10.00;86.40;;;;;;5088967;28;20439;-75
